sensor_id;sensor_type;location;lat;lon;timestamp;P1;durP1;ratioP1;P2;durP2;ratioP2
58615;SDS011;44385;51.992;4.206;2023-09-18T00:02:25;64.97;;;41.97;;
58615;SDS011;44385;51.992;4.206;2023-09-18T00:04:53;56.95;;;39.50;;
58615;SDS011;44385;51.992;4.206;2023-09-18T00:07:20;60.13;;;39.00;;
58615;SDS011;44385;51.992;4.206;2023-09-18T00:09:47;55.58;;;40.13;;
58615;SDS011;44385;51.992;4.206;2023-09-18T00:12:14;53.65;;;37.58;;
58615;SDS011;44385;51.992;4.206;2023-09-18T00:14:40;55.55;;;38.30;;
58615;SDS011;44385;51.992;4.206;2023-09-18T00:17:07;56.30;;;38.50;;
58615;SDS011;44385;51.992;4.206;2023-09-18T00:19:34;51.90;;;38.00;;
58615;SDS011;44385;51.992;4.206;2023-09-18T00:22:00;51.45;;;36.33;;
58615;SDS011;44385;51.992;4.206;2023-09-18T00:24:28;51.08;;;36.60;;
58615;SDS011;44385;51.992;4.206;2023-09-18T00:26:54;49.13;;;34.65;;
58615;SDS011;44385;51.992;4.206;2023-09-18T00:29:21;49.40;;;35.00;;
58615;SDS011;44385;51.992;4.206;2023-09-18T00:31:47;45.13;;;33.22;;
58615;SDS011;44385;51.992;4.206;2023-09-18T00:34:13;48.38;;;33.78;;
58615;SDS011;44385;51.992;4.206;2023-09-18T00:36:39;40.78;;;31.38;;
58615;SDS011;44385;51.992;4.206;2023-09-18T00:39:06;40.95;;;33.25;;
58615;SDS011;44385;51.992;4.206;2023-09-18T00:41:34;42.50;;;31.70;;
58615;SDS011;44385;51.992;4.206;2023-09-18T00:44:02;42.70;;;31.67;;
58615;SDS011;44385;51.992;4.206;2023-09-18T00:46:29;43.10;;;33.80;;
58615;SDS011;44385;51.992;4.206;2023-09-18T00:48:56;44.97;;;33.45;;
58615;SDS011;44385;51.992;4.206;2023-09-18T00:51:23;38.63;;;30.02;;
58615;SDS011;44385;51.992;4.206;2023-09-18T00:53:49;41.60;;;31.52;;
58615;SDS011;44385;51.992;4.206;2023-09-18T00:56:17;38.20;;;30.25;;
58615;SDS011;44385;51.992;4.206;2023-09-18T00:58:46;40.88;;;32.35;;
58615;SDS011;44385;51.992;4.206;2023-09-18T01:01:13;37.75;;;27.45;;
58615;SDS011;44385;51.992;4.206;2023-09-18T01:03:41;37.38;;;28.25;;
58615;SDS011;44385;51.992;4.206;2023-09-18T01:06:07;39.70;;;29.30;;
58615;SDS011;44385;51.992;4.206;2023-09-18T01:08:34;42.17;;;31.88;;
58615;SDS011;44385;51.992;4.206;2023-09-18T01:11:03;42.33;;;31.85;;
58615;SDS011;44385;51.992;4.206;2023-09-18T01:13:33;41.92;;;32.03;;
58615;SDS011;44385;51.992;4.206;2023-09-18T01:16:04;38.92;;;31.23;;
58615;SDS011;44385;51.992;4.206;2023-09-18T01:18:32;39.67;;;30.95;;
58615;SDS011;44385;51.992;4.206;2023-09-18T01:20:59;42.92;;;32.90;;
58615;SDS011;44385;51.992;4.206;2023-09-18T01:23:27;40.50;;;32.08;;
58615;SDS011;44385;51.992;4.206;2023-09-18T01:25:53;44.95;;;31.60;;
58615;SDS011;44385;51.992;4.206;2023-09-18T01:28:19;34.53;;;29.98;;
58615;SDS011;44385;51.992;4.206;2023-09-18T01:30:46;41.65;;;31.17;;
58615;SDS011;44385;51.992;4.206;2023-09-18T01:33:12;40.38;;;30.17;;
58615;SDS011;44385;51.992;4.206;2023-09-18T01:35:39;35.60;;;28.38;;
58615;SDS011;44385;51.992;4.206;2023-09-18T01:38:06;37.95;;;28.38;;
58615;SDS011;44385;51.992;4.206;2023-09-18T01:43:03;35.17;;;27.40;;
58615;SDS011;44385;51.992;4.206;2023-09-18T01:45:30;35.47;;;28.38;;
58615;SDS011;44385;51.992;4.206;2023-09-18T01:47:57;35.17;;;29.40;;
58615;SDS011;44385;51.992;4.206;2023-09-18T01:50:24;37.88;;;28.35;;
58615;SDS011;44385;51.992;4.206;2023-09-18T01:52:50;37.50;;;27.65;;
58615;SDS011;44385;51.992;4.206;2023-09-18T01:55:17;33.92;;;27.77;;
58615;SDS011;44385;51.992;4.206;2023-09-18T01:57:44;29.48;;;24.88;;
58615;SDS011;44385;51.992;4.206;2023-09-18T02:00:12;30.83;;;25.30;;
58615;SDS011;44385;51.992;4.206;2023-09-18T02:05:06;27.77;;;24.35;;
58615;SDS011;44385;51.992;4.206;2023-09-18T02:07:32;23.52;;;20.40;;
58615;SDS011;44385;51.992;4.206;2023-09-18T02:09:59;21.27;;;19.08;;
58615;SDS011;44385;51.992;4.206;2023-09-18T02:12:25;20.08;;;17.98;;
58615;SDS011;44385;51.992;4.206;2023-09-18T02:14:52;20.92;;;18.55;;
58615;SDS011;44385;51.992;4.206;2023-09-18T02:17:20;24.92;;;18.67;;
58615;SDS011;44385;51.992;4.206;2023-09-18T02:19:46;21.88;;;19.52;;
58615;SDS011;44385;51.992;4.206;2023-09-18T02:22:12;23.63;;;19.50;;
58615;SDS011;44385;51.992;4.206;2023-09-18T02:24:39;24.50;;;19.48;;
58615;SDS011;44385;51.992;4.206;2023-09-18T02:27:05;23.58;;;19.45;;
58615;SDS011;44385;51.992;4.206;2023-09-18T02:29:32;27.15;;;21.00;;
58615;SDS011;44385;51.992;4.206;2023-09-18T02:31:58;25.67;;;20.08;;
58615;SDS011;44385;51.992;4.206;2023-09-18T02:34:26;26.40;;;21.45;;
58615;SDS011;44385;51.992;4.206;2023-09-18T02:36:52;24.88;;;21.40;;
58615;SDS011;44385;51.992;4.206;2023-09-18T02:39:19;29.30;;;22.10;;
58615;SDS011;44385;51.992;4.206;2023-09-18T02:41:45;25.92;;;22.73;;
58615;SDS011;44385;51.992;4.206;2023-09-18T02:44:11;26.33;;;20.83;;
58615;SDS011;44385;51.992;4.206;2023-09-18T02:46:38;25.65;;;21.88;;
58615;SDS011;44385;51.992;4.206;2023-09-18T02:49:04;27.65;;;22.27;;
58615;SDS011;44385;51.992;4.206;2023-09-18T02:51:32;27.85;;;22.13;;
58615;SDS011;44385;51.992;4.206;2023-09-18T02:53:58;26.33;;;22.83;;
58615;SDS011;44385;51.992;4.206;2023-09-18T02:56:25;29.05;;;22.35;;
58615;SDS011;44385;51.992;4.206;2023-09-18T02:58:52;26.05;;;23.25;;
58615;SDS011;44385;51.992;4.206;2023-09-18T03:01:18;30.45;;;22.42;;
58615;SDS011;44385;51.992;4.206;2023-09-18T03:03:45;29.83;;;23.27;;
58615;SDS011;44385;51.992;4.206;2023-09-18T03:06:11;28.50;;;23.40;;
58615;SDS011;44385;51.992;4.206;2023-09-18T03:08:39;26.52;;;20.95;;
58615;SDS011;44385;51.992;4.206;2023-09-18T03:11:10;30.20;;;21.67;;
58615;SDS011;44385;51.992;4.206;2023-09-18T03:13:36;29.20;;;23.20;;
58615;SDS011;44385;51.992;4.206;2023-09-18T03:16:03;42.58;;;25.27;;
58615;SDS011;44385;51.992;4.206;2023-09-18T03:18:29;40.88;;;28.15;;
58615;SDS011;44385;51.992;4.206;2023-09-18T03:20:56;39.30;;;27.58;;
58615;SDS011;44385;51.992;4.206;2023-09-18T03:23:22;34.53;;;26.98;;
58615;SDS011;44385;51.992;4.206;2023-09-18T03:25:50;31.45;;;25.73;;
58615;SDS011;44385;51.992;4.206;2023-09-18T03:28:17;32.03;;;24.70;;
58615;SDS011;44385;51.992;4.206;2023-09-18T03:30:43;33.47;;;26.42;;
58615;SDS011;44385;51.992;4.206;2023-09-18T03:33:10;35.05;;;25.52;;
58615;SDS011;44385;51.992;4.206;2023-09-18T03:35:44;35.78;;;27.98;;
58615;SDS011;44385;51.992;4.206;2023-09-18T03:38:11;40.95;;;28.70;;
58615;SDS011;44385;51.992;4.206;2023-09-18T03:40:38;33.20;;;27.13;;
58615;SDS011;44385;51.992;4.206;2023-09-18T03:43:05;34.63;;;25.52;;
58615;SDS011;44385;51.992;4.206;2023-09-18T03:45:32;38.45;;;26.23;;
58615;SDS011;44385;51.992;4.206;2023-09-18T03:47:58;33.10;;;24.40;;
58615;SDS011;44385;51.992;4.206;2023-09-18T03:50:24;34.70;;;26.33;;
58615;SDS011;44385;51.992;4.206;2023-09-18T03:52:52;32.08;;;24.80;;
58615;SDS011;44385;51.992;4.206;2023-09-18T03:55:18;33.38;;;25.02;;
58615;SDS011;44385;51.992;4.206;2023-09-18T03:57:45;30.65;;;24.65;;
58615;SDS011;44385;51.992;4.206;2023-09-18T04:00:15;29.93;;;24.43;;
58615;SDS011;44385;51.992;4.206;2023-09-18T04:02:41;28.90;;;23.17;;
58615;SDS011;44385;51.992;4.206;2023-09-18T04:05:08;30.50;;;23.85;;
58615;SDS011;44385;51.992;4.206;2023-09-18T04:07:34;27.80;;;23.33;;
58615;SDS011;44385;51.992;4.206;2023-09-18T04:10:00;29.75;;;24.80;;
58615;SDS011;44385;51.992;4.206;2023-09-18T04:12:27;31.73;;;24.20;;
58615;SDS011;44385;51.992;4.206;2023-09-18T04:14:54;29.80;;;23.90;;
58615;SDS011;44385;51.992;4.206;2023-09-18T04:17:21;33.40;;;24.70;;
58615;SDS011;44385;51.992;4.206;2023-09-18T04:19:48;30.40;;;24.13;;
58615;SDS011;44385;51.992;4.206;2023-09-18T04:22:14;31.02;;;23.25;;
58615;SDS011;44385;51.992;4.206;2023-09-18T04:24:41;33.40;;;24.52;;
58615;SDS011;44385;51.992;4.206;2023-09-18T04:27:07;30.17;;;23.38;;
58615;SDS011;44385;51.992;4.206;2023-09-18T04:29:33;32.97;;;22.85;;
58615;SDS011;44385;51.992;4.206;2023-09-18T04:32:00;29.40;;;23.02;;
58615;SDS011;44385;51.992;4.206;2023-09-18T04:34:30;30.67;;;24.17;;
58615;SDS011;44385;51.992;4.206;2023-09-18T04:36:57;28.88;;;22.55;;
58615;SDS011;44385;51.992;4.206;2023-09-18T04:39:24;29.48;;;22.70;;
58615;SDS011;44385;51.992;4.206;2023-09-18T04:41:50;30.10;;;23.42;;
58615;SDS011;44385;51.992;4.206;2023-09-18T04:44:17;30.35;;;21.90;;
58615;SDS011;44385;51.992;4.206;2023-09-18T04:46:44;32.88;;;23.33;;
58615;SDS011;44385;51.992;4.206;2023-09-18T04:49:10;32.25;;;23.95;;
58615;SDS011;44385;51.992;4.206;2023-09-18T04:51:38;29.95;;;23.77;;
58615;SDS011;44385;51.992;4.206;2023-09-18T04:54:06;33.03;;;24.48;;
58615;SDS011;44385;51.992;4.206;2023-09-18T04:56:33;37.35;;;23.88;;
58615;SDS011;44385;51.992;4.206;2023-09-18T04:59:00;30.90;;;22.17;;
58615;SDS011;44385;51.992;4.206;2023-09-18T05:01:26;26.05;;;21.33;;
58615;SDS011;44385;51.992;4.206;2023-09-18T05:03:55;27.67;;;19.43;;
58615;SDS011;44385;51.992;4.206;2023-09-18T05:06:24;31.70;;;22.02;;
58615;SDS011;44385;51.992;4.206;2023-09-18T05:08:52;32.70;;;24.00;;
58615;SDS011;44385;51.992;4.206;2023-09-18T05:11:19;26.45;;;20.45;;
58615;SDS011;44385;51.992;4.206;2023-09-18T05:13:45;31.63;;;23.40;;
58615;SDS011;44385;51.992;4.206;2023-09-18T05:16:12;28.38;;;22.25;;
58615;SDS011;44385;51.992;4.206;2023-09-18T05:18:38;30.02;;;24.13;;
58615;SDS011;44385;51.992;4.206;2023-09-18T05:21:05;28.05;;;22.77;;
58615;SDS011;44385;51.992;4.206;2023-09-18T05:23:32;29.00;;;21.98;;
58615;SDS011;44385;51.992;4.206;2023-09-18T05:26:00;29.55;;;22.13;;
58615;SDS011;44385;51.992;4.206;2023-09-18T05:28:26;29.52;;;23.23;;
58615;SDS011;44385;51.992;4.206;2023-09-18T05:30:53;28.80;;;22.05;;
58615;SDS011;44385;51.992;4.206;2023-09-18T05:33:24;30.00;;;22.20;;
58615;SDS011;44385;51.992;4.206;2023-09-18T05:35:50;28.08;;;21.60;;
58615;SDS011;44385;51.992;4.206;2023-09-18T05:38:17;34.50;;;23.75;;
58615;SDS011;44385;51.992;4.206;2023-09-18T05:40:44;30.90;;;22.77;;
58615;SDS011;44385;51.992;4.206;2023-09-18T05:43:12;32.95;;;22.35;;
58615;SDS011;44385;51.992;4.206;2023-09-18T05:45:38;32.15;;;22.65;;
58615;SDS011;44385;51.992;4.206;2023-09-18T05:48:05;27.40;;;21.42;;
58615;SDS011;44385;51.992;4.206;2023-09-18T05:50:34;23.98;;;19.55;;
58615;SDS011;44385;51.992;4.206;2023-09-18T05:53:01;25.85;;;19.45;;
58615;SDS011;44385;51.992;4.206;2023-09-18T05:55:29;25.23;;;19.90;;
58615;SDS011;44385;51.992;4.206;2023-09-18T05:57:55;25.98;;;19.00;;
58615;SDS011;44385;51.992;4.206;2023-09-18T06:00:24;25.92;;;19.33;;
58615;SDS011;44385;51.992;4.206;2023-09-18T06:02:50;24.08;;;19.80;;
58615;SDS011;44385;51.992;4.206;2023-09-18T06:05:17;21.88;;;16.40;;
58615;SDS011;44385;51.992;4.206;2023-09-18T06:07:46;21.38;;;16.02;;
58615;SDS011;44385;51.992;4.206;2023-09-18T06:10:12;23.02;;;17.75;;
58615;SDS011;44385;51.992;4.206;2023-09-18T06:12:39;27.15;;;18.70;;
58615;SDS011;44385;51.992;4.206;2023-09-18T06:15:06;27.35;;;19.92;;
58615;SDS011;44385;51.992;4.206;2023-09-18T06:20:02;21.35;;;16.70;;
58615;SDS011;44385;51.992;4.206;2023-09-18T06:22:29;19.88;;;15.93;;
58615;SDS011;44385;51.992;4.206;2023-09-18T06:24:56;18.70;;;15.75;;
58615;SDS011;44385;51.992;4.206;2023-09-18T06:29:52;18.08;;;14.70;;
58615;SDS011;44385;51.992;4.206;2023-09-18T06:32:18;13.93;;;12.15;;
58615;SDS011;44385;51.992;4.206;2023-09-18T06:34:45;15.82;;;12.30;;
58615;SDS011;44385;51.992;4.206;2023-09-18T06:37:13;11.55;;;10.40;;
58615;SDS011;44385;51.992;4.206;2023-09-18T06:39:41;12.95;;;10.05;;
58615;SDS011;44385;51.992;4.206;2023-09-18T06:42:07;10.32;;;7.90;;
58615;SDS011;44385;51.992;4.206;2023-09-18T06:44:34;8.93;;;8.05;;
58615;SDS011;44385;51.992;4.206;2023-09-18T06:47:03;10.43;;;7.80;;
58615;SDS011;44385;51.992;4.206;2023-09-18T06:49:29;10.13;;;7.72;;
58615;SDS011;44385;51.992;4.206;2023-09-18T06:51:57;11.27;;;7.60;;
58615;SDS011;44385;51.992;4.206;2023-09-18T06:54:25;10.80;;;7.75;;
58615;SDS011;44385;51.992;4.206;2023-09-18T06:56:52;9.70;;;8.40;;
58615;SDS011;44385;51.992;4.206;2023-09-18T06:59:18;9.68;;;7.50;;
58615;SDS011;44385;51.992;4.206;2023-09-18T07:01:45;7.53;;;6.65;;
58615;SDS011;44385;51.992;4.206;2023-09-18T07:04:11;10.25;;;6.90;;
58615;SDS011;44385;51.992;4.206;2023-09-18T07:06:38;8.45;;;6.30;;
58615;SDS011;44385;51.992;4.206;2023-09-18T07:09:05;8.18;;;6.43;;
58615;SDS011;44385;51.992;4.206;2023-09-18T07:11:33;8.30;;;6.10;;
58615;SDS011;44385;51.992;4.206;2023-09-18T07:14:00;8.82;;;6.18;;
58615;SDS011;44385;51.992;4.206;2023-09-18T07:16:27;7.63;;;5.43;;
58615;SDS011;44385;51.992;4.206;2023-09-18T07:18:53;7.47;;;5.55;;
58615;SDS011;44385;51.992;4.206;2023-09-18T07:21:20;6.93;;;5.15;;
58615;SDS011;44385;51.992;4.206;2023-09-18T07:23:46;5.35;;;4.80;;
58615;SDS011;44385;51.992;4.206;2023-09-18T07:26:13;8.45;;;4.97;;
58615;SDS011;44385;51.992;4.206;2023-09-18T07:28:41;5.70;;;5.00;;
58615;SDS011;44385;51.992;4.206;2023-09-18T07:31:09;8.63;;;5.00;;
58615;SDS011;44385;51.992;4.206;2023-09-18T07:33:37;6.05;;;4.35;;
58615;SDS011;44385;51.992;4.206;2023-09-18T07:36:03;6.32;;;4.57;;
58615;SDS011;44385;51.992;4.206;2023-09-18T07:38:30;7.38;;;4.93;;
58615;SDS011;44385;51.992;4.206;2023-09-18T07:40:59;6.78;;;4.97;;
58615;SDS011;44385;51.992;4.206;2023-09-18T07:45:53;6.03;;;4.40;;
58615;SDS011;44385;51.992;4.206;2023-09-18T07:48:21;6.38;;;5.25;;
58615;SDS011;44385;51.992;4.206;2023-09-18T07:50:48;7.97;;;5.10;;
58615;SDS011;44385;51.992;4.206;2023-09-18T07:53:15;6.72;;;4.90;;
58615;SDS011;44385;51.992;4.206;2023-09-18T07:55:41;7.18;;;4.50;;
58615;SDS011;44385;51.992;4.206;2023-09-18T07:58:08;6.07;;;3.78;;
58615;SDS011;44385;51.992;4.206;2023-09-18T08:00:34;4.95;;;3.97;;
58615;SDS011;44385;51.992;4.206;2023-09-18T08:03:02;5.90;;;4.53;;
58615;SDS011;44385;51.992;4.206;2023-09-18T08:05:28;4.10;;;3.55;;
58615;SDS011;44385;51.992;4.206;2023-09-18T08:07:57;9.40;;;4.32;;
58615;SDS011;44385;51.992;4.206;2023-09-18T08:10:24;5.30;;;4.18;;
58615;SDS011;44385;51.992;4.206;2023-09-18T08:12:51;5.07;;;4.30;;
58615;SDS011;44385;51.992;4.206;2023-09-18T08:15:19;6.03;;;4.10;;
58615;SDS011;44385;51.992;4.206;2023-09-18T08:17:45;8.15;;;3.85;;
58615;SDS011;44385;51.992;4.206;2023-09-18T08:20:15;4.93;;;3.97;;
58615;SDS011;44385;51.992;4.206;2023-09-18T08:22:42;5.45;;;4.32;;
58615;SDS011;44385;51.992;4.206;2023-09-18T08:25:09;5.20;;;4.10;;
58615;SDS011;44385;51.992;4.206;2023-09-18T08:27:36;5.20;;;4.03;;
58615;SDS011;44385;51.992;4.206;2023-09-18T08:30:05;4.90;;;4.15;;
58615;SDS011;44385;51.992;4.206;2023-09-18T08:32:32;4.97;;;4.47;;
58615;SDS011;44385;51.992;4.206;2023-09-18T08:34:59;7.25;;;4.05;;
58615;SDS011;44385;51.992;4.206;2023-09-18T08:37:27;5.57;;;4.35;;
58615;SDS011;44385;51.992;4.206;2023-09-18T08:39:54;5.25;;;4.05;;
58615;SDS011;44385;51.992;4.206;2023-09-18T08:42:20;9.32;;;4.82;;
58615;SDS011;44385;51.992;4.206;2023-09-18T08:44:48;5.45;;;4.30;;
58615;SDS011;44385;51.992;4.206;2023-09-18T08:47:15;5.03;;;3.90;;
58615;SDS011;44385;51.992;4.206;2023-09-18T08:49:43;6.55;;;4.57;;
58615;SDS011;44385;51.992;4.206;2023-09-18T08:52:10;7.60;;;4.30;;
58615;SDS011;44385;51.992;4.206;2023-09-18T08:54:39;5.53;;;4.55;;
58615;SDS011;44385;51.992;4.206;2023-09-18T08:57:05;5.30;;;4.55;;
58615;SDS011;44385;51.992;4.206;2023-09-18T08:59:33;8.38;;;4.93;;
58615;SDS011;44385;51.992;4.206;2023-09-18T09:01:59;6.40;;;3.90;;
58615;SDS011;44385;51.992;4.206;2023-09-18T09:04:26;4.60;;;4.20;;
58615;SDS011;44385;51.992;4.206;2023-09-18T09:06:52;5.88;;;4.35;;
58615;SDS011;44385;51.992;4.206;2023-09-18T09:09:22;5.53;;;3.78;;
58615;SDS011;44385;51.992;4.206;2023-09-18T09:11:50;6.18;;;4.22;;
58615;SDS011;44385;51.992;4.206;2023-09-18T09:16:47;4.75;;;4.35;;
58615;SDS011;44385;51.992;4.206;2023-09-18T09:19:14;5.75;;;4.57;;
58615;SDS011;44385;51.992;4.206;2023-09-18T09:21:41;5.28;;;3.80;;
58615;SDS011;44385;51.992;4.206;2023-09-18T09:24:09;6.18;;;4.50;;
58615;SDS011;44385;51.992;4.206;2023-09-18T09:26:38;5.43;;;4.47;;
58615;SDS011;44385;51.992;4.206;2023-09-18T09:29:15;4.72;;;4.18;;
58615;SDS011;44385;51.992;4.206;2023-09-18T09:31:43;5.95;;;4.20;;
58615;SDS011;44385;51.992;4.206;2023-09-18T09:34:09;9.82;;;4.90;;
58615;SDS011;44385;51.992;4.206;2023-09-18T09:36:35;6.40;;;4.60;;
58615;SDS011;44385;51.992;4.206;2023-09-18T09:39:02;5.45;;;4.32;;
58615;SDS011;44385;51.992;4.206;2023-09-18T09:41:30;6.30;;;4.75;;
58615;SDS011;44385;51.992;4.206;2023-09-18T09:43:58;8.07;;;4.78;;
58615;SDS011;44385;51.992;4.206;2023-09-18T09:46:26;8.90;;;4.97;;
58615;SDS011;44385;51.992;4.206;2023-09-18T09:48:59;7.75;;;4.90;;
58615;SDS011;44385;51.992;4.206;2023-09-18T09:51:26;4.78;;;4.13;;
58615;SDS011;44385;51.992;4.206;2023-09-18T09:53:52;4.90;;;4.25;;
58615;SDS011;44385;51.992;4.206;2023-09-18T09:56:18;7.60;;;4.70;;
58615;SDS011;44385;51.992;4.206;2023-09-18T09:58:59;7.53;;;4.87;;
58615;SDS011;44385;51.992;4.206;2023-09-18T10:01:28;6.80;;;6.18;;
58615;SDS011;44385;51.992;4.206;2023-09-18T10:03:56;7.20;;;4.72;;
58615;SDS011;44385;51.992;4.206;2023-09-18T10:06:23;6.80;;;5.13;;
58615;SDS011;44385;51.992;4.206;2023-09-18T10:08:50;7.20;;;5.78;;
58615;SDS011;44385;51.992;4.206;2023-09-18T10:11:21;6.80;;;5.57;;
58615;SDS011;44385;51.992;4.206;2023-09-18T10:13:49;8.20;;;5.78;;
58615;SDS011;44385;51.992;4.206;2023-09-18T10:16:18;6.97;;;4.60;;
58615;SDS011;44385;51.992;4.206;2023-09-18T10:18:49;6.63;;;4.93;;
58615;SDS011;44385;51.992;4.206;2023-09-18T10:21:20;6.53;;;5.20;;
58615;SDS011;44385;51.992;4.206;2023-09-18T10:23:51;5.93;;;4.13;;
58615;SDS011;44385;51.992;4.206;2023-09-18T10:26:23;6.47;;;4.00;;
58615;SDS011;44385;51.992;4.206;2023-09-18T10:28:50;6.32;;;4.40;;
58615;SDS011;44385;51.992;4.206;2023-09-18T10:31:21;8.18;;;4.30;;
58615;SDS011;44385;51.992;4.206;2023-09-18T10:33:49;4.32;;;3.78;;
58615;SDS011;44385;51.992;4.206;2023-09-18T10:36:18;5.57;;;3.80;;
58615;SDS011;44385;51.992;4.206;2023-09-18T10:38:45;3.55;;;3.20;;
58615;SDS011;44385;51.992;4.206;2023-09-18T10:41:15;3.80;;;3.50;;
58615;SDS011;44385;51.992;4.206;2023-09-18T10:43:42;4.45;;;3.80;;
58615;SDS011;44385;51.992;4.206;2023-09-18T10:46:09;5.00;;;4.50;;
58615;SDS011;44385;51.992;4.206;2023-09-18T10:48:35;6.43;;;3.53;;
58615;SDS011;44385;51.992;4.206;2023-09-18T10:51:03;4.90;;;4.05;;
58615;SDS011;44385;51.992;4.206;2023-09-18T10:53:31;7.07;;;4.18;;
58615;SDS011;44385;51.992;4.206;2023-09-18T10:55:57;5.05;;;3.42;;
58615;SDS011;44385;51.992;4.206;2023-09-18T10:58:24;4.75;;;3.67;;
58615;SDS011;44385;51.992;4.206;2023-09-18T11:00:53;5.75;;;4.28;;
58615;SDS011;44385;51.992;4.206;2023-09-18T11:03:21;3.65;;;2.85;;
58615;SDS011;44385;51.992;4.206;2023-09-18T11:05:48;5.22;;;3.53;;
58615;SDS011;44385;51.992;4.206;2023-09-18T11:08:29;4.90;;;3.70;;
58615;SDS011;44385;51.992;4.206;2023-09-18T11:10:59;4.38;;;2.90;;
58615;SDS011;44385;51.992;4.206;2023-09-18T11:13:30;4.05;;;3.35;;
58615;SDS011;44385;51.992;4.206;2023-09-18T11:15:59;5.60;;;3.10;;
58615;SDS011;44385;51.992;4.206;2023-09-18T11:18:31;3.13;;;2.60;;
58615;SDS011;44385;51.992;4.206;2023-09-18T11:21:08;2.78;;;2.25;;
58615;SDS011;44385;51.992;4.206;2023-09-18T11:23:36;5.03;;;2.58;;
58615;SDS011;44385;51.992;4.206;2023-09-18T11:26:07;3.20;;;2.90;;
58615;SDS011;44385;51.992;4.206;2023-09-18T11:28:32;6.85;;;3.30;;
58615;SDS011;44385;51.992;4.206;2023-09-18T11:30:59;5.40;;;3.38;;
58615;SDS011;44385;51.992;4.206;2023-09-18T11:33:30;5.10;;;3.08;;
58615;SDS011;44385;51.992;4.206;2023-09-18T11:35:57;6.10;;;3.15;;
58615;SDS011;44385;51.992;4.206;2023-09-18T11:38:24;5.43;;;3.70;;
58615;SDS011;44385;51.992;4.206;2023-09-18T11:40:53;4.18;;;3.30;;
58615;SDS011;44385;51.992;4.206;2023-09-18T11:43:20;3.95;;;3.08;;
58615;SDS011;44385;51.992;4.206;2023-09-18T11:45:50;3.88;;;3.42;;
58615;SDS011;44385;51.992;4.206;2023-09-18T11:48:19;4.25;;;3.10;;
58615;SDS011;44385;51.992;4.206;2023-09-18T11:50:46;9.80;;;3.17;;
58615;SDS011;44385;51.992;4.206;2023-09-18T11:53:14;4.25;;;3.03;;
58615;SDS011;44385;51.992;4.206;2023-09-18T11:55:40;4.32;;;3.15;;
58615;SDS011;44385;51.992;4.206;2023-09-18T11:58:08;4.22;;;2.65;;
58615;SDS011;44385;51.992;4.206;2023-09-18T12:00:35;4.15;;;3.03;;
58615;SDS011;44385;51.992;4.206;2023-09-18T12:03:14;3.85;;;2.83;;
58615;SDS011;44385;51.992;4.206;2023-09-18T12:05:41;3.47;;;2.40;;
58615;SDS011;44385;51.992;4.206;2023-09-18T12:08:08;3.55;;;2.30;;
58615;SDS011;44385;51.992;4.206;2023-09-18T12:10:36;4.03;;;2.67;;
58615;SDS011;44385;51.992;4.206;2023-09-18T12:13:05;6.53;;;3.53;;
58615;SDS011;44385;51.992;4.206;2023-09-18T12:15:33;3.40;;;3.10;;
58615;SDS011;44385;51.992;4.206;2023-09-18T12:18:04;4.93;;;3.10;;
58615;SDS011;44385;51.992;4.206;2023-09-18T12:20:31;9.18;;;3.40;;
58615;SDS011;44385;51.992;4.206;2023-09-18T12:22:59;5.72;;;3.50;;
58615;SDS011;44385;51.992;4.206;2023-09-18T12:25:27;5.22;;;2.88;;
58615;SDS011;44385;51.992;4.206;2023-09-18T12:27:54;6.05;;;3.75;;
58615;SDS011;44385;51.992;4.206;2023-09-18T12:30:21;7.03;;;3.80;;
58615;SDS011;44385;51.992;4.206;2023-09-18T12:32:50;5.30;;;4.13;;
58615;SDS011;44385;51.992;4.206;2023-09-18T12:35:19;7.88;;;4.57;;
58615;SDS011;44385;51.992;4.206;2023-09-18T12:37:45;7.75;;;4.53;;
58615;SDS011;44385;51.992;4.206;2023-09-18T12:40:21;5.75;;;3.80;;
58615;SDS011;44385;51.992;4.206;2023-09-18T12:42:48;5.15;;;4.13;;
58615;SDS011;44385;51.992;4.206;2023-09-18T12:45:14;4.25;;;3.85;;
58615;SDS011;44385;51.992;4.206;2023-09-18T12:47:42;6.22;;;3.78;;
58615;SDS011;44385;51.992;4.206;2023-09-18T12:50:10;4.45;;;3.60;;
58615;SDS011;44385;51.992;4.206;2023-09-18T12:52:38;5.47;;;3.80;;
58615;SDS011;44385;51.992;4.206;2023-09-18T12:55:04;6.50;;;3.35;;
58615;SDS011;44385;51.992;4.206;2023-09-18T12:57:31;5.72;;;3.42;;
58615;SDS011;44385;51.992;4.206;2023-09-18T12:59:58;5.72;;;3.03;;
58615;SDS011;44385;51.992;4.206;2023-09-18T13:02:28;5.70;;;3.35;;
58615;SDS011;44385;51.992;4.206;2023-09-18T13:04:55;3.15;;;2.78;;
58615;SDS011;44385;51.992;4.206;2023-09-18T13:07:26;3.95;;;3.00;;
58615;SDS011;44385;51.992;4.206;2023-09-18T13:09:59;5.70;;;3.20;;
58615;SDS011;44385;51.992;4.206;2023-09-18T13:12:38;5.47;;;3.33;;
58615;SDS011;44385;51.992;4.206;2023-09-18T13:17:37;5.00;;;3.22;;
58615;SDS011;44385;51.992;4.206;2023-09-18T13:20:11;6.97;;;3.55;;
58615;SDS011;44385;51.992;4.206;2023-09-18T13:22:39;6.18;;;3.17;;
58615;SDS011;44385;51.992;4.206;2023-09-18T13:25:07;3.85;;;3.33;;
58615;SDS011;44385;51.992;4.206;2023-09-18T13:27:34;4.82;;;3.00;;
58615;SDS011;44385;51.992;4.206;2023-09-18T13:30:00;5.78;;;3.78;;
58615;SDS011;44385;51.992;4.206;2023-09-18T13:32:32;5.63;;;3.33;;
58615;SDS011;44385;51.992;4.206;2023-09-18T13:34:58;6.35;;;3.42;;
58615;SDS011;44385;51.992;4.206;2023-09-18T13:37:25;5.68;;;3.35;;
58615;SDS011;44385;51.992;4.206;2023-09-18T13:39:55;5.35;;;3.85;;
58615;SDS011;44385;51.992;4.206;2023-09-18T13:42:26;4.50;;;3.30;;
58615;SDS011;44385;51.992;4.206;2023-09-18T13:44:52;5.15;;;3.63;;
58615;SDS011;44385;51.992;4.206;2023-09-18T13:47:18;7.43;;;3.75;;
58615;SDS011;44385;51.992;4.206;2023-09-18T13:49:45;7.60;;;3.47;;
58615;SDS011;44385;51.992;4.206;2023-09-18T13:52:12;5.15;;;3.45;;
58615;SDS011;44385;51.992;4.206;2023-09-18T13:54:39;5.95;;;4.13;;
58615;SDS011;44385;51.992;4.206;2023-09-18T13:57:07;5.82;;;4.10;;
58615;SDS011;44385;51.992;4.206;2023-09-18T13:59:33;6.55;;;3.35;;
58615;SDS011;44385;51.992;4.206;2023-09-18T14:02:00;3.78;;;2.03;;
58615;SDS011;44385;51.992;4.206;2023-09-18T14:04:26;4.85;;;3.00;;
58615;SDS011;44385;51.992;4.206;2023-09-18T14:06:53;5.85;;;2.25;;
58615;SDS011;44385;51.992;4.206;2023-09-18T14:09:20;4.03;;;1.50;;
58615;SDS011;44385;51.992;4.206;2023-09-18T14:11:46;4.35;;;1.20;;
58615;SDS011;44385;51.992;4.206;2023-09-18T14:14:14;5.20;;;1.65;;
58615;SDS011;44385;51.992;4.206;2023-09-18T14:16:40;5.65;;;1.80;;
58615;SDS011;44385;51.992;4.206;2023-09-18T14:19:07;10.88;;;2.88;;
58615;SDS011;44385;51.992;4.206;2023-09-18T14:21:36;10.68;;;2.67;;
58615;SDS011;44385;51.992;4.206;2023-09-18T14:24:04;12.13;;;3.05;;
58615;SDS011;44385;51.992;4.206;2023-09-18T14:26:31;8.35;;;2.92;;
58615;SDS011;44385;51.992;4.206;2023-09-18T14:28:58;12.63;;;2.97;;
58615;SDS011;44385;51.992;4.206;2023-09-18T14:31:26;5.53;;;2.17;;
58615;SDS011;44385;51.992;4.206;2023-09-18T14:33:53;7.82;;;2.15;;
58615;SDS011;44385;51.992;4.206;2023-09-18T14:36:20;6.97;;;2.00;;
58615;SDS011;44385;51.992;4.206;2023-09-18T14:38:46;6.13;;;2.42;;
58615;SDS011;44385;51.992;4.206;2023-09-18T14:41:13;5.38;;;2.50;;
58615;SDS011;44385;51.992;4.206;2023-09-18T14:43:39;9.00;;;2.35;;
58615;SDS011;44385;51.992;4.206;2023-09-18T14:46:06;5.82;;;2.42;;
58615;SDS011;44385;51.992;4.206;2023-09-18T14:48:34;4.10;;;1.65;;
58615;SDS011;44385;51.992;4.206;2023-09-18T14:51:00;5.95;;;2.38;;
58615;SDS011;44385;51.992;4.206;2023-09-18T14:53:26;5.22;;;2.55;;
58615;SDS011;44385;51.992;4.206;2023-09-18T14:55:53;5.15;;;2.50;;